createdAt,value
2023-04-06T00:02:08.904Z,9.37
2023-04-06T00:04:35.441Z,8.33
2023-04-06T00:07:01.951Z,8.53
2023-04-06T00:09:28.409Z,8.23
2023-04-06T00:11:54.852Z,8.90
2023-04-06T00:14:21.935Z,8.63
2023-04-06T00:16:48.473Z,8.40
2023-04-06T00:19:16.736Z,8.03
2023-04-06T00:21:43.682Z,8.37
2023-04-06T00:24:10.368Z,7.60
2023-04-06T00:26:36.832Z,7.33
2023-04-06T00:29:03.610Z,7.60
2023-04-06T00:31:30.121Z,7.97
2023-04-06T00:33:56.662Z,7.20
2023-04-06T00:36:23.178Z,7.50
2023-04-06T00:38:49.718Z,8.20
2023-04-06T00:41:16.206Z,7.90
2023-04-06T00:43:42.650Z,8.00
2023-04-06T00:46:09.166Z,7.20
2023-04-06T00:48:35.754Z,7.27
2023-04-06T00:51:02.697Z,7.50
2023-04-06T00:53:29.141Z,7.50
2023-04-06T00:55:55.584Z,7.10
2023-04-06T00:58:22.101Z,7.53
2023-04-06T01:00:48.580Z,7.37
2023-04-06T01:03:15.116Z,7.33
2023-04-06T01:05:41.802Z,7.20
2023-04-06T01:08:08.722Z,7.70
2023-04-06T01:10:35.369Z,7.87
2023-04-06T01:13:01.846Z,8.47
2023-04-06T01:15:29.673Z,7.60
2023-04-06T01:17:56.108Z,8.27
2023-04-06T01:20:22.654Z,9.00
2023-04-06T01:22:49.121Z,10.07
2023-04-06T01:25:15.598Z,9.17
2023-04-06T01:27:42.235Z,10.43
2023-04-06T01:30:08.933Z,10.60
2023-04-06T01:32:35.402Z,10.20
2023-04-06T01:35:02.033Z,10.40
2023-04-06T01:37:30.450Z,10.97
2023-04-06T01:39:56.914Z,11.37
2023-04-06T01:42:23.382Z,11.17
2023-04-06T01:44:49.844Z,11.50
2023-04-06T01:47:16.282Z,10.80
2023-04-06T01:49:42.711Z,11.17
2023-04-06T01:52:09.244Z,10.90
2023-04-06T01:54:35.725Z,11.73
2023-04-06T01:57:02.190Z,12.43
2023-04-06T01:59:28.646Z,13.07
2023-04-06T02:01:55.137Z,14.47
2023-04-06T02:04:22.364Z,13.30
2023-04-06T02:06:48.898Z,14.10
2023-04-06T02:09:15.632Z,14.13
2023-04-06T02:11:42.113Z,14.10
2023-04-06T02:14:08.621Z,14.03
2023-04-06T02:16:35.120Z,13.50
2023-04-06T02:19:01.866Z,14.40
2023-04-06T02:21:28.313Z,13.00
2023-04-06T02:23:54.947Z,12.97
2023-04-06T02:26:21.763Z,13.77
2023-04-06T02:28:48.270Z,13.50
2023-04-06T02:31:16.088Z,14.43
2023-04-06T02:33:42.593Z,14.97
2023-04-06T02:36:09.176Z,14.10
2023-04-06T02:38:35.629Z,15.40
2023-04-06T02:41:02.113Z,15.30
2023-04-06T02:43:28.574Z,15.00
2023-04-06T02:45:55.448Z,14.13
2023-04-06T02:48:21.933Z,16.10
2023-04-06T02:50:48.413Z,15.23
2023-04-06T02:53:14.865Z,16.20
2023-04-06T02:55:41.381Z,16.00
2023-04-06T02:58:07.880Z,15.70
2023-04-06T03:00:34.362Z,17.33
2023-04-06T03:03:00.861Z,17.73
2023-04-06T03:05:27.548Z,16.97
2023-04-06T03:07:53.996Z,17.17
2023-04-06T03:10:20.445Z,15.77
2023-04-06T03:12:46.974Z,16.40
2023-04-06T03:15:13.437Z,16.57
2023-04-06T03:17:40.081Z,16.30
2023-04-06T03:20:06.893Z,17.50
2023-04-06T03:22:33.331Z,17.07
2023-04-06T03:25:01.004Z,17.47
2023-04-06T03:27:29.596Z,17.70
2023-04-06T03:29:56.347Z,20.00
2023-04-06T03:32:22.854Z,19.97
2023-04-06T03:34:49.399Z,17.37
2023-04-06T03:37:15.829Z,20.37
2023-04-06T03:39:42.287Z,18.67
2023-04-06T03:42:08.756Z,18.53
2023-04-06T03:44:35.547Z,18.33
2023-04-06T03:47:03.279Z,16.87
2023-04-06T03:49:29.739Z,18.17
2023-04-06T03:51:57.664Z,17.20
2023-04-06T03:54:24.763Z,19.00
2023-04-06T03:56:51.606Z,19.17
2023-04-06T03:59:18.429Z,21.83
2023-04-06T04:01:44.918Z,19.17
2023-04-06T04:04:11.768Z,18.70
2023-04-06T04:06:38.259Z,17.37
2023-04-06T04:09:04.696Z,18.67
2023-04-06T04:11:31.153Z,17.17
2023-04-06T04:13:57.724Z,17.73
2023-04-06T04:16:24.524Z,17.47
2023-04-06T04:18:51.414Z,17.27
2023-04-06T04:21:18.332Z,17.90
2023-04-06T04:23:44.975Z,17.03
2023-04-06T04:26:11.752Z,18.10
2023-04-06T04:28:38.461Z,17.37
2023-04-06T04:31:05.060Z,17.50
2023-04-06T04:33:31.597Z,18.37
2023-04-06T04:35:58.212Z,16.93
2023-04-06T04:38:24.702Z,18.90
2023-04-06T04:40:51.210Z,17.47
2023-04-06T04:43:17.710Z,18.53
2023-04-06T04:45:44.246Z,19.43
2023-04-06T04:48:11.792Z,20.30
2023-04-06T04:50:38.353Z,18.73
2023-04-06T04:53:07.008Z,20.10
2023-04-06T04:55:33.498Z,21.10
2023-04-06T04:57:59.953Z,21.77
2023-04-06T05:00:26.758Z,21.43
2023-04-06T05:02:53.357Z,22.97
2023-04-06T05:05:19.961Z,23.37
2023-04-06T05:07:46.714Z,24.00
2023-04-06T05:10:13.306Z,23.77
2023-04-06T05:12:39.793Z,24.97
2023-04-06T05:15:06.810Z,26.00
2023-04-06T05:17:33.624Z,26.37
2023-04-06T05:20:00.962Z,27.23
2023-04-06T05:22:27.477Z,26.27
2023-04-06T05:24:53.912Z,25.47
2023-04-06T05:27:20.550Z,26.33
2023-04-06T05:29:47.073Z,26.40
2023-04-06T05:32:13.597Z,26.70
2023-04-06T05:34:40.153Z,28.33
2023-04-06T05:37:06.681Z,25.83
2023-04-06T05:39:33.207Z,26.70
2023-04-06T05:41:59.685Z,25.90
2023-04-06T05:44:26.567Z,27.40
2023-04-06T05:46:53.045Z,26.93
2023-04-06T05:49:19.568Z,27.47
2023-04-06T05:51:46.037Z,26.73
2023-04-06T05:54:12.511Z,26.33
2023-04-06T05:56:39.001Z,27.50
2023-04-06T05:59:05.538Z,27.30
2023-04-06T06:01:32.070Z,26.27
2023-04-06T06:03:58.521Z,27.17
2023-04-06T06:09:20.072Z,26.33
2023-04-06T06:14:29.688Z,25.87
2023-04-06T06:16:56.160Z,26.40
2023-04-06T06:19:22.646Z,25.83
2023-04-06T06:21:49.106Z,25.40
2023-04-06T06:24:15.562Z,23.77
2023-04-06T06:26:42.126Z,25.33
2023-04-06T06:29:08.807Z,24.57
2023-04-06T06:31:36.371Z,23.43
2023-04-06T06:34:03.016Z,24.30
2023-04-06T06:36:31.652Z,23.70
2023-04-06T06:38:59.310Z,23.27
2023-04-06T06:41:27.138Z,22.20
2023-04-06T06:43:53.773Z,21.87
2023-04-06T06:46:21.648Z,20.47
2023-04-06T06:48:50.348Z,19.80
2023-04-06T06:51:16.806Z,19.63
2023-04-06T06:53:43.289Z,18.53
2023-04-06T06:56:09.772Z,17.90
2023-04-06T06:58:36.252Z,17.73
2023-04-06T07:01:06.870Z,16.10
2023-04-06T07:03:33.478Z,16.47
2023-04-06T07:06:00.165Z,16.10
2023-04-06T07:08:26.727Z,16.37
2023-04-06T07:10:54.004Z,16.40
2023-04-06T07:13:24.357Z,16.13
2023-04-06T07:15:51.242Z,15.53
2023-04-06T07:18:18.529Z,13.63
2023-04-06T07:20:45.226Z,14.67
2023-04-06T07:23:11.757Z,13.87
2023-04-06T07:25:38.508Z,13.27
2023-04-06T07:28:05.103Z,13.27
2023-04-06T07:30:32.664Z,12.33
2023-04-06T07:33:00.682Z,12.73
2023-04-06T07:35:28.161Z,11.83
2023-04-06T07:38:15.481Z,11.67
2023-04-06T07:40:41.983Z,10.90
2023-04-06T07:43:08.486Z,9.57
2023-04-06T07:45:34.936Z,10.27
2023-04-06T07:48:01.439Z,10.10
2023-04-06T07:50:27.962Z,10.97
2023-04-06T07:52:55.090Z,10.80
2023-04-06T07:55:26.845Z,10.37
2023-04-06T07:57:53.342Z,10.20
2023-04-06T08:00:23.395Z,9.27
2023-04-06T08:02:50.100Z,10.50
2023-04-06T08:05:17.127Z,9.33
2023-04-06T08:07:44.752Z,10.10
2023-04-06T08:10:11.492Z,8.83
2023-04-06T08:12:42.670Z,9.17
2023-04-06T08:15:49.466Z,8.80
2023-04-06T08:18:19.504Z,9.50
2023-04-06T08:20:46.029Z,9.40
2023-04-06T08:23:12.523Z,9.50
2023-04-06T08:25:43.225Z,8.97
2023-04-06T08:28:10.552Z,8.00
2023-04-06T08:30:42.926Z,8.37
2023-04-06T08:33:14.402Z,8.07
2023-04-06T08:35:45.154Z,8.17
2023-04-06T08:38:24.430Z,7.63
2023-04-06T08:41:00.409Z,7.20
2023-04-06T08:43:29.548Z,7.03
2023-04-06T08:46:19.700Z,7.10
2023-04-06T08:48:47.626Z,6.93
2023-04-06T08:51:18.584Z,6.93
2023-04-06T09:00:44.067Z,6.87
2023-04-06T09:03:25.041Z,6.40
2023-04-06T09:12:34.428Z,5.83
2023-04-06T09:18:56.915Z,4.77
2023-04-06T09:21:25.922Z,4.63
2023-04-06T09:24:03.099Z,4.90
2023-04-06T09:26:32.210Z,4.30
2023-04-06T09:32:31.705Z,3.20
2023-04-06T09:35:36.458Z,4.00
2023-04-06T09:38:24.256Z,3.63
2023-04-06T09:41:01.182Z,4.10
2023-04-06T09:43:28.640Z,4.93
2023-04-06T09:45:56.667Z,4.20
2023-04-06T09:48:23.556Z,4.03
2023-04-06T09:50:51.490Z,3.50
2023-04-06T09:53:20.573Z,3.73
2023-04-06T09:55:48.753Z,4.00
2023-04-06T09:58:27.801Z,3.40
2023-04-06T10:01:20.882Z,3.40
2023-04-06T10:03:57.034Z,3.87
2023-04-06T10:06:26.391Z,3.43
2023-04-06T10:08:55.681Z,3.90
2023-04-06T10:11:22.201Z,4.00
2023-04-06T10:13:49.785Z,3.67
2023-04-06T10:16:16.796Z,3.70
2023-04-06T10:18:47.826Z,3.70
2023-04-06T10:21:17.463Z,4.17
2023-04-06T10:23:53.445Z,4.07
2023-04-06T10:26:23.032Z,3.90
2023-04-06T10:29:03.090Z,3.80
2023-04-06T10:31:31.564Z,4.20
2023-04-06T10:34:00.109Z,3.93
2023-04-06T10:36:29.150Z,3.60
2023-04-06T10:39:00.961Z,3.70
2023-04-06T10:41:44.556Z,3.93
2023-04-06T10:44:31.308Z,3.47
2023-04-06T10:47:01.431Z,3.33
2023-04-06T10:49:28.020Z,3.50
2023-04-06T10:51:55.968Z,3.83
2023-04-06T10:54:23.783Z,3.43
2023-04-06T10:56:50.301Z,3.60
2023-04-06T10:59:23.321Z,3.57
2023-04-06T11:01:50.216Z,3.80
2023-04-06T11:04:19.048Z,3.50
2023-04-06T11:06:49.768Z,4.20
2023-04-06T11:09:29.202Z,3.80
2023-04-06T11:11:57.090Z,3.97
2023-04-06T11:14:24.130Z,3.53
2023-04-06T11:16:51.189Z,3.77
2023-04-06T11:19:18.437Z,3.80
2023-04-06T11:21:49.487Z,3.80
2023-04-06T11:24:20.188Z,3.90
2023-04-06T11:26:49.488Z,4.43
2023-04-06T11:29:17.475Z,4.50
2023-04-06T11:31:47.340Z,3.90
2023-04-06T11:34:17.415Z,3.87
2023-04-06T11:36:45.492Z,3.87
2023-04-06T11:39:19.166Z,4.23
2023-04-06T11:41:53.885Z,4.27
2023-04-06T11:44:41.053Z,3.80
2023-04-06T11:47:09.410Z,3.77
2023-04-06T11:49:38.603Z,4.10
2023-04-06T11:52:16.091Z,3.70
2023-04-06T11:54:42.588Z,5.07
2023-04-06T11:57:09.443Z,4.80
2023-04-06T11:59:36.888Z,4.37
2023-04-06T12:02:04.701Z,4.60
2023-04-06T12:04:31.492Z,4.50
2023-04-06T12:06:58.565Z,4.37
2023-04-06T12:09:25.323Z,4.80
2023-04-06T12:11:51.786Z,5.13
2023-04-06T12:14:18.333Z,5.57
2023-04-06T12:16:44.903Z,6.37
2023-04-06T12:19:11.517Z,5.43
2023-04-06T12:21:38.418Z,5.90
2023-04-06T12:24:06.334Z,5.40
2023-04-06T12:26:33.408Z,5.90
2023-04-06T12:29:07.554Z,5.57
2023-04-06T12:31:36.058Z,5.73
2023-04-06T12:34:04.119Z,5.40
2023-04-06T12:36:30.732Z,5.80
2023-04-06T12:38:57.180Z,5.17
2023-04-06T12:41:23.971Z,6.10
2023-04-06T12:43:53.368Z,5.43
2023-04-06T12:46:20.879Z,6.13
2023-04-06T12:48:47.410Z,5.90
2023-04-06T12:51:13.880Z,5.50
2023-04-06T12:53:40.467Z,5.80
2023-04-06T12:56:15.062Z,6.07
2023-04-06T12:58:44.474Z,6.20
2023-04-06T13:01:12.606Z,5.70
2023-04-06T13:03:39.599Z,5.77
2023-04-06T13:06:06.415Z,5.87
2023-04-06T13:08:32.952Z,5.73
2023-04-06T13:10:59.440Z,6.17
2023-04-06T13:13:29.912Z,6.17
2023-04-06T13:16:04.387Z,6.67
2023-04-06T13:18:32.479Z,6.90
2023-04-06T13:21:00.495Z,6.37
2023-04-06T13:23:27.695Z,6.57
2023-04-06T13:26:01.619Z,6.37
2023-04-06T13:28:28.802Z,6.60
2023-04-06T13:30:56.379Z,6.87
2023-04-06T13:33:23.206Z,6.20
2023-04-06T13:35:49.672Z,6.27
2023-04-06T13:38:17.041Z,6.17
2023-04-06T13:40:43.647Z,6.53
2023-04-06T13:43:10.177Z,6.60
2023-04-06T13:45:37.763Z,6.17
2023-04-06T13:48:04.544Z,6.30
2023-04-06T13:50:31.093Z,6.30
2023-04-06T13:52:57.567Z,5.87
2023-04-06T13:55:27.153Z,6.00
2023-04-06T13:57:53.718Z,6.60
2023-04-06T14:00:20.440Z,6.23
2023-04-06T14:02:47.073Z,5.83
2023-04-06T14:05:13.801Z,6.10
2023-04-06T14:07:41.203Z,6.37
2023-04-06T14:10:14.704Z,6.13
2023-04-06T14:12:47.556Z,6.27
2023-04-06T14:15:14.097Z,6.13
2023-04-06T14:17:40.698Z,6.47
2023-04-06T14:20:07.949Z,6.33
2023-04-06T14:22:34.402Z,6.13
2023-04-06T14:25:00.858Z,6.03
2023-04-06T14:27:27.302Z,6.20
2023-04-06T14:29:55.032Z,6.17
2023-04-06T14:32:22.612Z,5.90
2023-04-06T14:34:49.114Z,6.17
2023-04-06T14:37:15.648Z,6.10
2023-04-06T14:39:42.135Z,6.47
2023-04-06T14:42:08.591Z,5.90
2023-04-06T14:44:37.616Z,5.77
2023-04-06T14:47:06.335Z,5.60
2023-04-06T14:49:33.089Z,6.83
2023-04-06T14:52:00.475Z,6.00
2023-04-06T14:54:26.964Z,5.93
2023-04-06T14:56:53.427Z,5.87
2023-04-06T14:59:19.859Z,6.30
2023-04-06T15:01:46.613Z,6.47
2023-04-06T15:04:13.319Z,6.00
2023-04-06T15:06:39.908Z,6.07
2023-04-06T15:09:06.410Z,6.23
2023-04-06T15:11:32.881Z,6.03
2023-04-06T15:14:01.413Z,6.10
2023-04-06T15:16:28.215Z,6.20
2023-04-06T15:18:54.749Z,7.03
2023-04-06T15:21:21.613Z,7.13
2023-04-06T15:23:48.384Z,7.00
2023-04-06T15:26:15.513Z,6.40
2023-04-06T15:28:42.103Z,6.40
2023-04-06T15:33:48.567Z,6.80
2023-04-06T15:36:33.994Z,5.97
2023-04-06T15:39:01.671Z,6.10
2023-04-06T15:41:28.540Z,5.77
2023-04-06T15:43:55.777Z,6.13
2023-04-06T15:46:22.565Z,6.50
2023-04-06T15:48:49.156Z,6.13
2023-04-06T15:51:17.673Z,6.17
2023-04-06T15:53:44.951Z,6.47
2023-04-06T15:56:11.726Z,6.67
2023-04-06T15:58:38.260Z,6.33
2023-04-06T16:01:12.941Z,6.73
2023-04-06T16:03:39.729Z,6.83
2023-04-06T16:06:08.878Z,6.37
2023-04-06T16:08:36.781Z,12.33
2023-04-06T16:11:03.721Z,6.23
2023-04-06T16:13:30.295Z,6.80
2023-04-06T16:15:56.913Z,7.00
2023-04-06T16:18:23.468Z,6.17
2023-04-06T16:20:50.046Z,6.20
2023-04-06T16:23:16.607Z,6.53
2023-04-06T16:25:43.068Z,6.10
2023-04-06T16:28:09.571Z,6.17
2023-04-06T16:30:40.500Z,6.50
2023-04-06T16:33:09.903Z,6.87
2023-04-06T16:35:36.777Z,6.30
2023-04-06T16:38:03.242Z,5.77
2023-04-06T16:40:29.763Z,6.40
2023-04-06T16:42:56.206Z,6.60
2023-04-06T16:45:22.757Z,6.27
2023-04-06T16:47:50.484Z,6.87
2023-04-06T16:50:17.553Z,6.40
2023-04-06T16:52:44.281Z,6.20
2023-04-06T16:55:11.323Z,6.27
2023-04-06T16:57:37.803Z,6.63
2023-04-06T17:00:06.043Z,6.10
2023-04-06T17:02:36.136Z,6.30
2023-04-06T17:05:04.105Z,6.93
2023-04-06T17:07:35.523Z,6.10
2023-04-06T17:10:03.648Z,6.40
2023-04-06T17:12:30.175Z,7.30
2023-04-06T17:14:58.155Z,6.80
2023-04-06T17:17:24.731Z,8.33
2023-04-06T17:19:51.243Z,6.00
2023-04-06T17:22:20.891Z,7.37
2023-04-06T17:24:48.670Z,6.70
2023-04-06T17:27:15.930Z,7.17
2023-04-06T17:29:42.556Z,6.83
2023-04-06T17:32:09.152Z,7.07
2023-04-06T17:34:35.766Z,6.67
2023-04-06T17:37:02.644Z,6.93
2023-04-06T17:39:29.086Z,7.23
2023-04-06T17:41:55.623Z,7.23
2023-04-06T17:44:22.093Z,7.20
2023-04-06T17:46:48.819Z,6.77
2023-04-06T17:49:15.410Z,7.53
2023-04-06T17:51:41.977Z,6.77
2023-04-06T17:54:08.433Z,6.73
2023-04-06T17:56:34.920Z,6.27
2023-04-06T17:59:01.358Z,6.40
2023-04-06T18:01:28.091Z,6.80
2023-04-06T18:03:54.745Z,8.10
2023-04-06T18:06:25.119Z,7.07
2023-04-06T18:08:52.370Z,7.17
2023-04-06T18:11:21.436Z,6.87
2023-04-06T18:13:47.988Z,7.20
2023-04-06T18:16:16.413Z,7.43
2023-04-06T18:18:43.077Z,7.03
2023-04-06T18:21:09.580Z,7.60
2023-04-06T18:23:37.695Z,8.40
2023-04-06T18:26:05.586Z,7.97
2023-04-06T18:28:32.286Z,8.17
2023-04-06T18:30:59.728Z,8.33
2023-04-06T18:33:29.135Z,9.07
2023-04-06T18:35:56.743Z,8.40
2023-04-06T18:38:24.151Z,9.60
2023-04-06T18:40:50.676Z,9.60
2023-04-06T18:43:17.165Z,8.87
2023-04-06T18:45:43.699Z,8.40
2023-04-06T18:48:10.496Z,8.37
2023-04-06T18:50:37.129Z,9.03
2023-04-06T18:53:04.186Z,9.37
2023-04-06T18:55:33.790Z,10.17
2023-04-06T18:58:00.600Z,9.43
2023-04-06T19:00:27.141Z,9.10
2023-04-06T19:02:54.091Z,9.67
2023-04-06T19:05:22.517Z,8.93
2023-04-06T19:07:52.680Z,9.07
2023-04-06T19:10:21.426Z,8.87
2023-04-06T19:12:48.944Z,9.20
2023-04-06T19:15:15.701Z,8.97
2023-04-06T19:17:42.544Z,9.87
2023-04-06T19:20:09.597Z,9.03
2023-04-06T19:22:37.742Z,8.87
2023-04-06T19:25:07.235Z,8.57
2023-04-06T19:27:34.132Z,9.77
2023-04-06T19:30:01.710Z,9.10
2023-04-06T19:32:30.238Z,8.80
2023-04-06T19:34:56.966Z,8.17
2023-04-06T19:37:23.525Z,9.10
2023-04-06T19:39:50.497Z,8.80
2023-04-06T19:42:21.990Z,8.93
2023-04-06T19:44:48.643Z,8.97
2023-04-06T19:47:15.478Z,8.77
2023-04-06T19:49:42.066Z,8.83
2023-04-06T19:52:10.092Z,9.17
2023-04-06T19:54:39.554Z,10.00
2023-04-06T19:57:06.219Z,9.83
2023-04-06T19:59:34.412Z,9.40
2023-04-06T20:02:01.139Z,8.63
2023-04-06T20:04:27.820Z,9.17
2023-04-06T20:06:54.377Z,8.80
2023-04-06T20:09:21.774Z,9.03
2023-04-06T20:11:48.226Z,9.47
2023-04-06T20:14:15.602Z,8.67
2023-04-06T20:16:42.108Z,8.53
2023-04-06T20:19:08.708Z,9.80
2023-04-06T20:21:36.283Z,9.00
2023-04-06T20:24:04.226Z,8.93
2023-04-06T20:26:30.903Z,8.70
2023-04-06T20:28:57.403Z,8.13
2023-04-06T20:31:27.710Z,8.27
2023-04-06T20:33:54.659Z,8.13
2023-04-06T20:36:22.297Z,8.10
2023-04-06T20:38:48.893Z,7.70
2023-04-06T20:41:19.153Z,8.17
2023-04-06T20:43:45.834Z,8.27
2023-04-06T20:46:17.084Z,8.60
2023-04-06T20:48:44.019Z,7.70
2023-04-06T20:51:18.190Z,7.73
2023-04-06T20:53:44.706Z,7.53
2023-04-06T20:56:11.428Z,8.17
2023-04-06T20:58:37.898Z,8.43
2023-04-06T21:01:04.451Z,7.57
2023-04-06T21:03:31.052Z,8.17
2023-04-06T21:05:59.012Z,8.13
2023-04-06T21:08:25.663Z,8.53
2023-04-06T21:10:52.133Z,8.43
2023-04-06T21:13:18.645Z,8.43
2023-04-06T21:15:45.198Z,8.73
2023-04-06T21:18:12.364Z,8.13
2023-04-06T21:20:39.937Z,8.43
2023-04-06T21:23:06.447Z,8.13
2023-04-06T21:25:32.878Z,8.27
2023-04-06T21:27:59.338Z,8.60
2023-04-06T21:30:25.821Z,8.13
2023-04-06T21:32:52.372Z,8.93
2023-04-06T21:35:18.900Z,8.33
2023-04-06T21:37:45.479Z,8.20
2023-04-06T21:40:12.960Z,8.10
2023-04-06T21:42:39.504Z,7.80
2023-04-06T21:45:06.451Z,8.17
2023-04-06T21:47:34.929Z,8.53
2023-04-06T21:50:01.498Z,8.30
2023-04-06T21:52:27.970Z,8.30
2023-04-06T21:54:54.466Z,8.77
2023-04-06T21:57:21.111Z,8.87
2023-04-06T21:59:48.012Z,9.03
2023-04-06T22:02:14.725Z,8.50
2023-04-06T22:04:41.397Z,8.00
2023-04-06T22:07:08.047Z,9.10
2023-04-06T22:09:35.236Z,8.57
2023-04-06T22:12:02.033Z,8.07
2023-04-06T22:14:30.188Z,8.17
2023-04-06T22:16:57.590Z,8.10
2023-04-06T22:19:24.071Z,7.80
2023-04-06T22:21:50.929Z,8.00
2023-04-06T22:24:17.818Z,8.43
2023-04-06T22:26:44.509Z,7.80
2023-04-06T22:29:10.991Z,8.53
2023-04-06T22:31:37.473Z,8.47
2023-04-06T22:34:04.015Z,8.27
2023-04-06T22:36:31.810Z,8.23
2023-04-06T22:38:58.290Z,8.10
2023-04-06T22:41:24.801Z,8.73
2023-04-06T22:43:51.265Z,8.67
2023-04-06T22:46:17.796Z,8.13
2023-04-06T22:48:44.249Z,8.17
2023-04-06T22:51:10.695Z,8.10
2023-04-06T22:53:37.198Z,8.47
2023-04-06T22:56:03.726Z,8.23
2023-04-06T22:58:30.327Z,8.43
2023-04-06T23:00:56.861Z,8.17
2023-04-06T23:03:23.477Z,8.97
2023-04-06T23:05:50.019Z,9.17
2023-04-06T23:08:16.518Z,8.13
2023-04-06T23:10:43.008Z,8.23
2023-04-06T23:13:10.381Z,8.50
2023-04-06T23:15:37.046Z,8.77
2023-04-06T23:18:03.720Z,8.13
2023-04-06T23:20:30.325Z,8.67
2023-04-06T23:22:56.769Z,7.87
2023-04-06T23:25:23.323Z,8.33
2023-04-06T23:27:49.762Z,8.33
2023-04-06T23:30:16.377Z,8.50
2023-04-06T23:32:42.970Z,9.33
2023-04-06T23:35:09.701Z,7.50
2023-04-06T23:37:36.281Z,7.53
2023-04-06T23:40:03.080Z,7.77
2023-04-06T23:42:29.524Z,8.60
2023-04-06T23:44:56.155Z,8.10
2023-04-06T23:47:22.689Z,7.77
2023-04-06T23:49:49.227Z,7.90
2023-04-06T23:52:15.671Z,7.60
2023-04-06T23:54:42.122Z,7.57
2023-04-06T23:57:08.593Z,8.37
2023-04-06T23:59:35.334Z,6.87
